createdAt,value
2023-09-27T00:00:47.710Z,15.05
2023-09-27T00:03:14.321Z,17.13
2023-09-27T00:05:41.110Z,13.55
2023-09-27T00:08:07.774Z,16.02
2023-09-27T00:10:34.598Z,15.57
2023-09-27T00:13:01.118Z,18.60
2023-09-27T00:15:27.561Z,16.13
2023-09-27T00:17:55.309Z,16.05
2023-09-27T00:20:22.987Z,17.88
2023-09-27T00:22:49.864Z,16.80
2023-09-27T00:25:16.467Z,16.08
2023-09-27T00:27:43.254Z,17.23
2023-09-27T00:30:14.456Z,15.30
2023-09-27T00:32:42.126Z,13.18
2023-09-27T00:35:15.878Z,15.82
2023-09-27T00:37:42.569Z,17.88
2023-09-27T00:40:13.082Z,15.85
2023-09-27T00:42:39.896Z,14.63
2023-09-27T00:45:07.886Z,15.00
2023-09-27T00:47:34.892Z,15.18
2023-09-27T00:50:01.529Z,15.60
2023-09-27T00:52:28.401Z,15.98
2023-09-27T00:54:55.209Z,14.32
2023-09-27T00:57:23.195Z,17.98
2023-09-27T00:59:50.887Z,13.50
2023-09-27T01:02:17.968Z,15.57
2023-09-27T01:04:44.832Z,15.93
2023-09-27T01:07:11.378Z,14.15
2023-09-27T01:09:38.772Z,14.55
2023-09-27T01:12:06.042Z,15.10
2023-09-27T01:14:32.571Z,16.17
2023-09-27T01:17:11.625Z,17.10
2023-09-27T01:19:39.878Z,14.52
2023-09-27T01:22:06.403Z,15.68
2023-09-27T01:24:36.526Z,14.93
2023-09-27T01:27:05.734Z,15.40
2023-09-27T01:29:32.188Z,18.13
2023-09-27T01:31:58.679Z,16.67
2023-09-27T01:34:25.169Z,16.42
2023-09-27T01:36:52.340Z,15.75
2023-09-27T01:41:46.080Z,13.85
2023-09-27T01:44:13.050Z,18.00
2023-09-27T01:46:39.850Z,13.93
2023-09-27T01:49:06.288Z,15.70
2023-09-27T01:51:32.699Z,14.50
2023-09-27T01:53:59.411Z,14.75
2023-09-27T01:56:25.887Z,15.75
2023-09-27T01:58:52.644Z,13.82
2023-09-27T02:01:19.248Z,15.15
2023-09-27T02:03:45.914Z,13.52
2023-09-27T02:06:12.670Z,13.50
2023-09-27T02:08:39.155Z,16.25
2023-09-27T02:11:05.590Z,15.07
2023-09-27T02:13:32.125Z,13.98
2023-09-27T02:15:58.670Z,14.85
2023-09-27T02:18:25.252Z,15.95
2023-09-27T02:20:51.956Z,15.57
2023-09-27T02:23:19.060Z,14.45
2023-09-27T02:28:11.945Z,17.33
2023-09-27T02:30:39.330Z,15.07
2023-09-27T02:33:05.813Z,13.70
2023-09-27T02:35:32.386Z,15.55
2023-09-27T02:37:58.958Z,15.50
2023-09-27T02:40:25.468Z,17.45
2023-09-27T02:42:51.961Z,14.05
2023-09-27T02:45:18.568Z,14.93
2023-09-27T02:47:45.685Z,14.80
2023-09-27T02:50:13.098Z,15.65
2023-09-27T02:52:40.075Z,15.20
2023-09-27T02:55:09.995Z,13.75
2023-09-27T02:57:37.323Z,14.00
2023-09-27T03:00:04.875Z,15.48
2023-09-27T03:02:34.853Z,14.57
2023-09-27T03:05:04.249Z,15.88
2023-09-27T03:07:30.740Z,12.23
2023-09-27T03:09:59.748Z,13.55
2023-09-27T03:12:26.240Z,14.48
2023-09-27T03:14:52.740Z,13.35
2023-09-27T03:17:19.204Z,14.52
2023-09-27T03:19:47.744Z,14.90
2023-09-27T03:22:14.281Z,13.63
2023-09-27T03:24:40.702Z,13.80
2023-09-27T03:27:09.693Z,15.05
2023-09-27T03:29:36.667Z,14.25
2023-09-27T03:32:03.557Z,11.38
2023-09-27T03:34:32.626Z,13.93
2023-09-27T03:36:59.110Z,13.90
2023-09-27T03:39:26.382Z,14.65
2023-09-27T03:44:19.223Z,13.52
2023-09-27T03:46:45.821Z,16.35
2023-09-27T03:49:14.047Z,15.00
2023-09-27T03:51:40.522Z,13.38
2023-09-27T03:54:07.258Z,13.85
2023-09-27T03:56:33.818Z,13.95
2023-09-27T03:59:00.386Z,13.88
2023-09-27T04:01:27.288Z,13.00
2023-09-27T04:03:53.795Z,12.82
2023-09-27T04:06:21.106Z,13.55
2023-09-27T04:11:14.005Z,13.13
2023-09-27T04:13:41.099Z,14.27
2023-09-27T04:16:07.574Z,12.88
2023-09-27T04:18:34.126Z,12.68
2023-09-27T04:21:09.736Z,14.10
2023-09-27T04:23:37.479Z,13.18
2023-09-27T04:26:07.636Z,11.25
2023-09-27T04:28:34.938Z,11.52
2023-09-27T04:33:28.118Z,11.55
2023-09-27T04:35:54.642Z,11.48
2023-09-27T04:38:21.106Z,11.48
2023-09-27T04:40:47.928Z,12.57
2023-09-27T04:43:14.416Z,12.73
2023-09-27T04:45:40.991Z,13.15
2023-09-27T04:48:07.515Z,11.65
2023-09-27T04:50:35.191Z,11.35
2023-09-27T04:53:01.735Z,10.48
2023-09-27T04:55:29.055Z,11.63
2023-09-27T05:00:23.180Z,15.43
2023-09-27T05:02:51.307Z,11.88
2023-09-27T05:05:18.031Z,12.48
2023-09-27T05:07:44.707Z,12.40
2023-09-27T05:10:11.294Z,11.85
2023-09-27T05:12:38.239Z,14.40
2023-09-27T05:15:05.260Z,15.57
2023-09-27T05:17:31.719Z,17.00
2023-09-27T05:19:58.842Z,12.02
2023-09-27T05:22:25.334Z,14.60
2023-09-27T05:24:51.878Z,12.57
2023-09-27T05:27:18.545Z,12.77
2023-09-27T05:29:46.238Z,14.75
2023-09-27T05:32:13.609Z,14.65
2023-09-27T05:34:40.079Z,15.68
2023-09-27T05:37:06.572Z,15.50
2023-09-27T05:39:33.254Z,12.85
2023-09-27T05:41:59.731Z,16.67
2023-09-27T05:44:26.278Z,15.95
2023-09-27T05:46:52.895Z,14.13
2023-09-27T05:49:19.880Z,14.30
2023-09-27T05:51:46.615Z,14.25
2023-09-27T05:54:13.150Z,14.65
2023-09-27T05:56:39.692Z,16.40
2023-09-27T05:59:12.692Z,14.60
2023-09-27T06:01:40.403Z,14.45
2023-09-27T06:04:07.933Z,16.00
2023-09-27T06:06:35.600Z,14.13
2023-09-27T06:09:02.034Z,15.70
2023-09-27T06:11:28.468Z,17.35
2023-09-27T06:13:55.494Z,16.83
2023-09-27T06:16:22.835Z,15.88
2023-09-27T06:18:49.338Z,15.30
2023-09-27T06:21:15.774Z,15.68
2023-09-27T06:23:42.512Z,16.02
2023-09-27T06:26:10.340Z,18.38
2023-09-27T06:28:40.426Z,18.55
2023-09-27T06:31:07.391Z,14.52
2023-09-27T06:33:40.414Z,16.00
2023-09-27T06:36:08.945Z,17.27
2023-09-27T06:38:35.629Z,17.60
2023-09-27T06:41:02.393Z,17.73
2023-09-27T06:43:31.135Z,17.35
2023-09-27T06:45:57.616Z,19.40
2023-09-27T06:48:27.374Z,19.17
2023-09-27T06:50:53.946Z,21.60
2023-09-27T06:53:24.107Z,17.33
2023-09-27T06:55:54.715Z,17.75
2023-09-27T06:58:26.821Z,20.40
2023-09-27T07:00:53.785Z,18.63
2023-09-27T07:03:25.888Z,17.58
2023-09-27T07:05:53.057Z,21.05
2023-09-27T07:08:19.670Z,20.63
2023-09-27T07:10:46.314Z,19.55
2023-09-27T07:13:12.733Z,18.45
2023-09-27T07:15:39.395Z,18.52
2023-09-27T07:18:07.193Z,17.85
2023-09-27T07:20:37.942Z,19.98
2023-09-27T07:23:08.831Z,20.08
2023-09-27T07:25:39.281Z,18.30
2023-09-27T07:28:07.077Z,18.63
2023-09-27T07:30:34.886Z,19.73
2023-09-27T07:33:04.905Z,20.08
2023-09-27T07:35:34.571Z,20.85
2023-09-27T07:38:02.171Z,20.58
2023-09-27T07:40:28.798Z,20.58
2023-09-27T07:42:55.360Z,19.17
2023-09-27T07:45:29.475Z,19.98
2023-09-27T07:47:56.937Z,21.20
2023-09-27T07:50:43.537Z,21.73
2023-09-27T07:53:10.126Z,21.27
2023-09-27T07:55:52.005Z,20.90
2023-09-27T07:58:18.692Z,21.95
2023-09-27T08:00:45.459Z,21.48
2023-09-27T08:03:15.719Z,23.08
2023-09-27T08:05:46.207Z,20.38
2023-09-27T08:08:14.809Z,25.08
2023-09-27T08:10:44.552Z,21.08
2023-09-27T08:13:16.243Z,22.08
2023-09-27T08:15:43.908Z,25.83
2023-09-27T08:18:10.469Z,23.55
2023-09-27T08:20:37.161Z,20.65
2023-09-27T08:23:04.306Z,26.38
2023-09-27T08:25:30.972Z,21.65
2023-09-27T08:27:57.610Z,27.50
2023-09-27T08:30:24.116Z,24.80
2023-09-27T08:32:52.588Z,26.65
2023-09-27T08:35:19.624Z,27.23
2023-09-27T08:37:46.359Z,24.52
2023-09-27T08:40:16.304Z,24.35
2023-09-27T08:42:44.049Z,23.67
2023-09-27T08:45:15.127Z,27.55
2023-09-27T08:47:44.859Z,25.55
2023-09-27T08:50:15.187Z,29.48
2023-09-27T08:52:50.312Z,26.17
2023-09-27T08:55:18.046Z,25.42
2023-09-27T08:57:52.839Z,26.70
2023-09-27T09:00:22.985Z,26.42
2023-09-27T09:02:53.595Z,24.98
2023-09-27T09:05:22.029Z,26.88
2023-09-27T09:07:48.617Z,26.55
2023-09-27T09:10:16.680Z,23.98
2023-09-27T09:12:44.616Z,28.92
2023-09-27T09:15:16.336Z,27.17
2023-09-27T09:17:49.497Z,24.35
2023-09-27T09:22:55.843Z,24.35
2023-09-27T09:25:24.272Z,27.60
2023-09-27T09:28:04.170Z,23.27
2023-09-27T09:30:38.762Z,22.45
2023-09-27T09:33:17.953Z,23.42
2023-09-27T09:35:44.696Z,24.13
2023-09-27T09:38:11.198Z,23.48
2023-09-27T09:40:59.296Z,25.08
2023-09-27T09:43:34.877Z,22.48
2023-09-27T09:46:04.832Z,24.23
2023-09-27T09:48:34.625Z,22.48
2023-09-27T09:51:08.834Z,21.13
2023-09-27T09:53:42.549Z,20.63
2023-09-27T09:58:48.814Z,22.75
2023-09-27T10:01:22.481Z,23.42
2023-09-27T10:03:52.795Z,18.88
2023-09-27T10:06:40.905Z,21.05
2023-09-27T10:09:15.198Z,21.38
2023-09-27T10:11:44.253Z,19.83
2023-09-27T10:14:11.900Z,21.02
2023-09-27T10:16:38.971Z,18.27
2023-09-27T10:19:06.632Z,20.92
2023-09-27T10:21:33.392Z,22.55
2023-09-27T10:24:02.432Z,20.77
2023-09-27T10:26:29.689Z,22.33
2023-09-27T10:29:02.097Z,23.75
2023-09-27T10:31:29.582Z,20.58
2023-09-27T10:33:56.309Z,19.45
2023-09-27T10:36:22.677Z,24.42
2023-09-27T10:38:55.291Z,25.35
2023-09-27T10:41:34.275Z,21.88
2023-09-27T10:44:04.261Z,19.08
2023-09-27T10:46:48.804Z,24.30
2023-09-27T10:49:38.280Z,20.15
2023-09-27T10:52:27.631Z,21.15
2023-09-27T10:54:54.086Z,23.83
2023-09-27T10:57:22.591Z,20.25
2023-09-27T10:59:50.798Z,21.45
2023-09-27T11:02:31.454Z,22.02
2023-09-27T11:04:57.936Z,21.08
2023-09-27T11:07:42.565Z,20.08
2023-09-27T11:10:09.103Z,18.02
2023-09-27T11:12:35.648Z,18.58
2023-09-27T11:15:02.584Z,18.63
2023-09-27T11:17:29.980Z,18.35
2023-09-27T11:19:56.718Z,18.08
2023-09-27T11:22:29.898Z,16.63
2023-09-27T11:24:57.021Z,25.13
2023-09-27T11:27:24.050Z,14.88
2023-09-27T11:29:56.653Z,15.93
2023-09-27T11:32:23.486Z,15.95
2023-09-27T11:37:24.413Z,11.90
2023-09-27T11:39:56.164Z,13.82
2023-09-27T11:42:24.264Z,11.93
2023-09-27T11:45:13.762Z,15.20
2023-09-27T11:47:47.448Z,11.20
2023-09-27T11:50:18.865Z,11.20
2023-09-27T11:52:48.122Z,11.38
2023-09-27T11:55:15.642Z,11.13
2023-09-27T11:57:42.499Z,8.85
2023-09-27T12:02:43.739Z,8.77
2023-09-27T12:05:19.650Z,10.07
2023-09-27T12:07:48.373Z,9.10
2023-09-27T12:10:14.893Z,7.95
2023-09-27T12:12:41.320Z,8.48
2023-09-27T12:15:08.301Z,8.25
2023-09-27T12:17:34.927Z,8.57
2023-09-27T12:20:01.454Z,9.57
2023-09-27T12:22:29.518Z,7.43
2023-09-27T12:24:56.075Z,7.10
2023-09-27T12:27:22.522Z,9.38
2023-09-27T12:29:49.716Z,7.30
2023-09-27T12:32:16.814Z,6.85
2023-09-27T12:34:43.321Z,9.07
2023-09-27T12:37:09.741Z,8.10
2023-09-27T12:39:38.684Z,7.80
2023-09-27T12:42:05.307Z,9.18
2023-09-27T12:44:32.902Z,7.18
2023-09-27T12:46:59.383Z,7.40
2023-09-27T12:49:26.575Z,7.57
2023-09-27T12:51:53.320Z,8.35
2023-09-27T12:54:20.446Z,8.40
2023-09-27T12:56:46.989Z,7.68
2023-09-27T12:59:13.535Z,6.40
2023-09-27T13:01:41.022Z,9.38
2023-09-27T13:04:08.285Z,9.25
2023-09-27T13:06:35.062Z,11.38
2023-09-27T13:09:04.121Z,8.27
2023-09-27T13:11:30.668Z,10.73
2023-09-27T13:13:57.096Z,8.70
2023-09-27T13:16:23.548Z,7.80
2023-09-27T13:18:53.380Z,8.68
2023-09-27T13:21:21.296Z,9.07
2023-09-27T13:23:47.724Z,7.55
2023-09-27T13:26:14.587Z,8.02
2023-09-27T13:31:07.481Z,8.43
2023-09-27T13:33:34.250Z,8.68
2023-09-27T13:36:01.059Z,8.77
2023-09-27T13:38:27.900Z,9.32
2023-09-27T13:40:54.576Z,7.93
2023-09-27T13:43:21.426Z,7.85
2023-09-27T13:48:15.149Z,9.57
2023-09-27T13:50:41.759Z,8.23
2023-09-27T13:53:08.323Z,9.10
2023-09-27T13:55:34.993Z,8.80
2023-09-27T13:58:01.466Z,7.88
2023-09-27T14:00:28.001Z,9.73
2023-09-27T14:02:54.889Z,7.63
2023-09-27T14:05:21.480Z,8.70
2023-09-27T14:07:48.039Z,8.13
2023-09-27T14:10:14.494Z,7.60
2023-09-27T14:12:41.916Z,8.85
2023-09-27T14:15:09.823Z,8.10
2023-09-27T14:17:36.706Z,10.15
2023-09-27T14:20:03.624Z,11.27
2023-09-27T14:24:57.268Z,8.55
2023-09-27T14:27:23.747Z,8.65
2023-09-27T14:29:50.223Z,10.48
2023-09-27T14:32:17.997Z,9.75
2023-09-27T14:37:23.479Z,11.40
2023-09-27T14:39:49.961Z,7.63
2023-09-27T14:42:17.172Z,9.15
2023-09-27T14:44:43.786Z,10.48
2023-09-27T14:47:10.288Z,10.40
2023-09-27T14:49:36.777Z,9.18
2023-09-27T14:52:03.241Z,10.60
2023-09-27T14:54:29.619Z,8.90
2023-09-27T14:56:58.367Z,11.48
2023-09-27T14:59:24.838Z,10.93
2023-09-27T15:01:54.148Z,9.35
2023-09-27T15:04:20.848Z,10.98
2023-09-27T15:06:47.361Z,11.13
2023-09-27T15:09:13.812Z,10.15
2023-09-27T15:11:40.228Z,8.88
2023-09-27T15:14:06.646Z,11.68
2023-09-27T15:16:35.003Z,10.18
2023-09-27T15:19:01.688Z,9.18
2023-09-27T15:21:28.152Z,11.10
2023-09-27T15:23:54.698Z,11.20
2023-09-27T15:28:49.167Z,10.73
2023-09-27T15:31:15.807Z,12.05
2023-09-27T15:33:42.283Z,10.73
2023-09-27T15:36:09.190Z,10.88
2023-09-27T15:38:35.767Z,10.25
2023-09-27T15:41:02.228Z,9.73
2023-09-27T15:43:30.556Z,12.68
2023-09-27T15:46:04.433Z,10.05
2023-09-27T15:48:34.864Z,11.27
2023-09-27T15:51:06.475Z,10.68
2023-09-27T15:53:33.662Z,11.13
2023-09-27T15:56:01.100Z,11.40
2023-09-27T15:58:27.912Z,11.57
2023-09-27T16:03:21.764Z,11.05
2023-09-27T16:05:49.774Z,10.73
2023-09-27T16:08:19.984Z,11.00
2023-09-27T16:10:54.709Z,10.93
2023-09-27T16:13:23.185Z,11.25
2023-09-27T16:15:51.551Z,11.65
2023-09-27T16:18:19.737Z,17.55
2023-09-27T16:20:47.780Z,11.32
2023-09-27T16:23:15.305Z,13.93
2023-09-27T16:25:42.343Z,10.50
2023-09-27T16:30:36.258Z,10.00
2023-09-27T16:33:05.649Z,13.73
2023-09-27T16:35:38.280Z,14.43
2023-09-27T16:38:05.018Z,9.88
2023-09-27T16:40:31.883Z,10.85
2023-09-27T16:45:25.426Z,9.35
2023-09-27T16:47:52.027Z,13.75
2023-09-27T16:50:18.501Z,12.73
2023-09-27T16:52:44.996Z,12.80
2023-09-27T16:55:12.296Z,9.43
2023-09-27T16:57:39.789Z,9.32
2023-09-27T17:00:11.448Z,10.82
2023-09-27T17:02:39.056Z,12.13
2023-09-27T17:05:06.754Z,9.48
2023-09-27T17:07:36.070Z,10.32
2023-09-27T17:10:04.751Z,14.85
2023-09-27T17:12:31.372Z,10.93
2023-09-27T17:14:57.896Z,10.35
2023-09-27T17:17:24.389Z,9.75
2023-09-27T17:19:50.926Z,9.15
2023-09-27T17:22:17.537Z,10.90
2023-09-27T17:24:44.082Z,10.88
2023-09-27T17:27:10.682Z,10.70
2023-09-27T17:29:37.118Z,10.48
2023-09-27T17:32:03.654Z,10.98
2023-09-27T17:34:30.554Z,12.50
2023-09-27T17:36:57.121Z,11.77
2023-09-27T17:39:24.105Z,13.75
2023-09-27T17:41:51.067Z,12.40
2023-09-27T17:44:17.460Z,13.20
2023-09-27T17:46:43.894Z,10.73
2023-09-27T17:49:10.418Z,12.05
2023-09-27T17:51:37.983Z,12.73
2023-09-27T17:54:07.015Z,13.55
2023-09-27T17:56:34.223Z,12.98
2023-09-27T17:59:00.632Z,12.80
2023-09-27T18:01:27.333Z,12.00
2023-09-27T18:03:54.184Z,11.82
2023-09-27T18:06:21.084Z,12.77
2023-09-27T18:08:47.539Z,12.60
2023-09-27T18:11:15.807Z,11.10
2023-09-27T18:13:43.411Z,13.02
2023-09-27T18:16:14.511Z,14.02
2023-09-27T18:18:40.939Z,13.38
2023-09-27T18:21:07.389Z,13.40
2023-09-27T18:23:33.851Z,11.88
2023-09-27T18:26:00.296Z,11.68
2023-09-27T18:28:26.776Z,13.10
2023-09-27T18:30:53.281Z,13.40
2023-09-27T18:33:19.684Z,13.32
2023-09-27T18:35:46.163Z,13.40
2023-09-27T18:38:12.643Z,12.30
2023-09-27T18:40:39.149Z,12.27
2023-09-27T18:43:05.583Z,12.98
2023-09-27T18:45:32.087Z,12.70
2023-09-27T18:47:58.734Z,13.63
2023-09-27T18:50:25.437Z,14.90
2023-09-27T18:52:51.977Z,11.30
2023-09-27T18:55:18.472Z,12.05
2023-09-27T18:57:45.044Z,12.27
2023-09-27T19:00:12.640Z,11.63
2023-09-27T19:02:39.265Z,13.05
2023-09-27T19:05:06.726Z,14.05
2023-09-27T19:07:33.826Z,12.55
2023-09-27T19:12:26.697Z,14.35
2023-09-27T19:14:53.249Z,15.13
2023-09-27T19:17:19.730Z,16.83
2023-09-27T19:19:46.188Z,14.82
2023-09-27T19:22:12.692Z,14.55
2023-09-27T19:24:39.397Z,14.55
2023-09-27T19:27:05.917Z,16.45
2023-09-27T19:29:33.322Z,13.93
2023-09-27T19:31:59.870Z,15.43
2023-09-27T19:34:26.491Z,14.10
2023-09-27T19:36:53.038Z,14.55
2023-09-27T19:39:19.647Z,16.30
2023-09-27T19:41:46.792Z,17.08
2023-09-27T19:44:13.391Z,15.13
2023-09-27T19:46:39.953Z,15.30
2023-09-27T19:49:06.547Z,13.15
2023-09-27T19:51:33.177Z,14.98
2023-09-27T19:54:01.700Z,15.35
2023-09-27T19:56:28.320Z,16.25
2023-09-27T19:58:54.882Z,16.85
2023-09-27T20:01:32.996Z,14.57
2023-09-27T20:03:59.887Z,14.82
2023-09-27T20:06:26.704Z,14.75
2023-09-27T20:08:53.200Z,14.52
2023-09-27T20:11:20.758Z,16.67
2023-09-27T20:13:47.956Z,15.93
2023-09-27T20:16:15.404Z,16.42
2023-09-27T20:18:41.908Z,17.65
2023-09-27T20:21:08.354Z,19.83
2023-09-27T20:23:34.989Z,18.30
2023-09-27T20:26:02.691Z,14.35
2023-09-27T20:28:29.299Z,18.50
2023-09-27T20:30:56.086Z,17.27
2023-09-27T20:33:22.741Z,17.05
2023-09-27T20:35:49.406Z,15.93
2023-09-27T20:38:16.098Z,19.42
2023-09-27T20:40:42.842Z,18.23
2023-09-27T20:43:09.391Z,19.73
2023-09-27T20:45:36.089Z,16.77
2023-09-27T20:48:02.885Z,17.33
2023-09-27T20:50:29.507Z,18.40
2023-09-27T20:52:56.065Z,19.08
2023-09-27T20:55:22.680Z,18.95
2023-09-27T20:57:51.537Z,16.20
2023-09-27T21:00:20.543Z,19.17
2023-09-27T21:02:47.078Z,16.55
2023-09-27T21:05:13.726Z,17.50
2023-09-27T21:07:40.299Z,19.65
2023-09-27T21:10:07.722Z,18.15
2023-09-27T21:12:34.565Z,14.85
2023-09-27T21:15:02.149Z,16.10
2023-09-27T21:17:28.991Z,17.17
2023-09-27T21:19:55.637Z,14.95
2023-09-27T21:22:22.154Z,16.45
2023-09-27T21:24:48.632Z,15.27
2023-09-27T21:27:15.174Z,17.17
2023-09-27T21:29:41.988Z,16.00
2023-09-27T21:32:08.527Z,18.40
2023-09-27T21:34:35.075Z,15.30
2023-09-27T21:37:01.531Z,15.18
2023-09-27T21:39:27.997Z,20.33
2023-09-27T21:41:54.671Z,14.45
2023-09-27T21:44:24.064Z,13.52
2023-09-27T21:46:54.091Z,13.18
2023-09-27T21:49:21.458Z,14.48
2023-09-27T21:51:48.954Z,12.65
2023-09-27T21:54:15.847Z,13.82
2023-09-27T21:56:43.651Z,12.55
2023-09-27T21:59:10.146Z,12.60
2023-09-27T22:01:37.916Z,11.93
2023-09-27T22:04:04.611Z,12.80
2023-09-27T22:06:31.136Z,9.80
2023-09-27T22:08:58.337Z,10.25
2023-09-27T22:11:25.603Z,12.55
2023-09-27T22:13:52.520Z,10.85
2023-09-27T22:16:22.732Z,10.38
2023-09-27T22:18:49.921Z,9.15
2023-09-27T22:21:28.034Z,9.93
2023-09-27T22:23:57.429Z,10.20
2023-09-27T22:26:26.204Z,11.02
2023-09-27T22:28:56.546Z,10.35
2023-09-27T22:31:32.150Z,9.38
2023-09-27T22:34:05.703Z,11.45
2023-09-27T22:36:32.809Z,10.52
2023-09-27T22:39:09.858Z,11.80
2023-09-27T22:41:40.698Z,10.68
2023-09-27T22:44:19.980Z,10.48
2023-09-27T22:46:51.568Z,8.95
2023-09-27T22:49:22.925Z,11.00
2023-09-27T22:51:50.258Z,11.50
2023-09-27T22:54:18.948Z,9.00
2023-09-27T22:56:47.190Z,12.02
2023-09-27T22:59:14.605Z,13.18
2023-09-27T23:01:43.783Z,13.95
2023-09-27T23:04:15.724Z,10.45
2023-09-27T23:07:01.638Z,9.93
2023-09-27T23:09:35.262Z,10.02
2023-09-27T23:12:20.710Z,8.52
2023-09-27T23:15:06.635Z,9.07
2023-09-27T23:17:56.397Z,10.85
2023-09-27T23:20:29.763Z,9.18
2023-09-27T23:22:58.636Z,10.75
2023-09-27T23:25:44.195Z,11.95
2023-09-27T23:28:40.140Z,8.70
2023-09-27T23:31:10.897Z,10.13
2023-09-27T23:33:44.552Z,8.35
2023-09-27T23:36:26.714Z,10.75
2023-09-27T23:38:57.305Z,8.35
2023-09-27T23:41:31.732Z,8.52
2023-09-27T23:44:02.203Z,7.90
2023-09-27T23:46:28.973Z,6.30
2023-09-27T23:48:55.518Z,9.45
2023-09-27T23:51:25.393Z,8.55
2023-09-27T23:53:53.127Z,8.73
2023-09-27T23:56:23.844Z,6.80
2023-09-27T23:58:53.174Z,9.38
